Decoded Metar for OINR (RAMSAR in IRAN) (IATA:RZR) | Meteo·Mobile Aviation Weather
aviador You're here:

OINR Decoded Metar

RAMSAR in IRAN
Report Time2018-11-18 21:00:00
UTC Time2018-11-18 21:09:51
Flight Rules mvfr MVFR
WindCalm
Visibility9999 m
Phenomena:N/A
Clouds:Broken 027 Hf
Expected CloudBase > 1,600 ft AGL from Temp-Dew spread
Ceiling2,700 ft
Temp14°C (ISA -1)
Dew Point10°C (77% RH)
QNH1021 hPa
Density Alt-305 ft
Elevation-66 ft
Report Wrong Elevation
Raw Report
METAR OINR 182100Z 00000KT 9999 BKN027 14/10 Q1021=

Extra information for OINR:More info

Metar Taf Metar & Taf Last 4 Metars F.Rules Stats Wind Profile Meteogram Temp Stats Airport Information Weather charts Add Link Nearby VenuesMetar ALERT Operation Metar Decoded Social comments